Time;durP1;ratioP1;P1;durP2;ratioP2;P2;SDS_P1;SDS_P2;PMS_P1;PMS_P2;Temp;Humidity;BMP_temperature;BMP_pressure;BME280_temperature;BME280_humidity;BME280_pressure;Samples;Min_cycle;Max_cycle;Signal;HPM_P1;HPM_P2
2023/09/02 00:01:15;;;;;;;2.17;1.38;;;19.20;99.90;;;;;;7389930;19;20590;-78
2023/09/02 00:03:41;;;;;;;1.65;1.35;;;18.90;99.90;;;;;;7389303;19;20143;-78
2023/09/02 00:06:07;;;;;;;3.10;1.60;;;18.90;99.90;;;;;;7389022;19;20131;-78
2023/09/02 00:08:33;;;;;;;1.60;1.45;;;19.10;99.90;;;;;;7390611;19;20147;-79
2023/09/02 00:10:58;;;;;;;3.25;1.52;;;19.10;99.90;;;;;;7388615;19;20269;-78
2023/09/02 00:13:24;;;;;;;2.05;1.20;;;19.00;99.90;;;;;;7389950;19;20599;-79
2023/09/02 00:15:50;;;;;;;1.77;1.25;;;18.90;99.90;;;;;;7389986;19;20147;-77
2023/09/02 00:18:16;;;;;;;2.05;1.52;;;18.90;99.90;;;;;;7388398;19;20214;-77
2023/09/02 00:20:41;;;;;;;4.25;1.50;;;19.00;99.90;;;;;;7389249;19;20201;-78
2023/09/02 00:23:07;;;;;;;2.00;1.38;;;19.00;99.90;;;;;;7389780;19;20170;-77
2023/09/02 00:25:33;;;;;;;3.13;1.80;;;18.80;99.90;;;;;;7389932;19;20143;-76
2023/09/02 00:27:59;;;;;;;3.90;1.90;;;18.60;99.90;;;;;;7388351;19;20138;-76
2023/09/02 00:30:24;;;;;;;3.42;1.60;;;18.70;99.90;;;;;;7386018;19;20134;-76
2023/09/02 00:32:50;;;;;;;2.38;1.48;;;18.80;99.90;;;;;;7388595;19;20177;-77
2023/09/02 00:35:16;;;;;;;3.97;1.58;;;18.70;99.90;;;;;;7389265;19;20579;-75
2023/09/02 00:37:41;;;;;;;2.33;1.60;;;18.40;99.90;;;;;;7388277;19;20201;-78
2023/09/02 00:40:12;;;;;;;3.65;1.77;;;18.30;99.90;;;;;;7388992;19;20218;-77
2023/09/02 00:42:39;;;;;;;2.58;1.80;;;18.20;99.90;;;;;;7381519;19;20138;-77
2023/09/02 00:45:05;;;;;;;3.92;1.90;;;18.00;99.90;;;;;;7388142;19;20135;-77
2023/09/02 00:47:31;;;;;;;3.38;1.30;;;18.10;99.90;;;;;;7388137;19;20134;-77
2023/09/02 00:49:58;;;;;;;6.00;2.15;;;18.20;99.90;;;;;;7384327;19;20226;-76
2023/09/02 00:52:23;;;;;;;4.50;2.00;;;18.50;99.90;;;;;;7386775;19;20150;-76
2023/09/02 00:54:50;;;;;;;5.57;1.90;;;18.70;99.90;;;;;;7387738;19;20609;-77
2023/09/02 00:57:15;;;;;;;5.93;2.50;;;18.80;99.90;;;;;;7387716;19;20202;-78
2023/09/02 00:59:41;;;;;;;5.25;1.95;;;18.60;99.90;;;;;;7388390;19;20579;-76
2023/09/02 01:02:08;;;;;;;2.92;2.28;;;18.60;99.90;;;;;;7386829;19;20141;-75
2023/09/02 01:04:34;;;;;;;2.53;1.90;;;18.30;99.90;;;;;;7385689;19;20146;-76
2023/09/02 01:07:02;;;;;;;3.40;2.15;;;18.10;99.90;;;;;;7387505;19;20158;-76
2023/09/02 01:09:30;;;;;;;5.40;2.10;;;18.00;99.90;;;;;;7385307;19;20142;-77
2023/09/02 01:11:56;;;;;;;2.97;1.73;;;18.20;99.90;;;;;;7387993;19;20169;-78
2023/09/02 01:14:23;;;;;;;2.75;2.20;;;18.30;99.90;;;;;;7386456;19;20606;-78
2023/09/02 01:16:48;;;;;;;3.15;1.73;;;18.50;99.90;;;;;;7387086;19;20496;-76
2023/09/02 01:19:17;;;;;;;3.88;1.95;;;18.50;99.90;;;;;;7386688;19;20150;-76
2023/09/02 01:22:05;;;;;;;2.58;1.40;;;18.60;99.90;;;;;;7388153;19;20130;-76
2023/09/02 01:24:50;;;;;;;5.40;1.70;;;18.40;99.90;;;;;;7386465;19;20143;-77
2023/09/02 01:27:37;;;;;;;2.60;1.42;;;18.50;99.90;;;;;;7385439;19;20131;-76
2023/09/02 01:30:21;;;;;;;2.70;1.50;;;18.50;99.90;;;;;;7386198;19;20267;-76
2023/09/02 01:32:51;;;;;;;4.75;1.50;;;18.50;99.90;;;;;;7385819;19;20139;-77
2023/09/02 01:35:21;;;;;;;2.30;1.40;;;18.40;99.90;;;;;;7381604;19;20218;-78
2023/09/02 01:37:51;;;;;;;1.95;1.33;;;18.50;99.90;;;;;;7387956;19;20138;-76
2023/09/02 01:40:25;;;;;;;1.80;1.63;;;18.50;99.90;;;;;;7387317;19;20585;-76
2023/09/02 01:42:51;;;;;;;1.67;1.40;;;18.40;99.90;;;;;;7387493;19;20155;-78
2023/09/02 01:45:22;;;;;;;3.03;1.55;;;18.50;99.90;;;;;;7384822;19;20154;-76
2023/09/02 01:47:51;;;;;;;2.88;1.45;;;18.60;99.90;;;;;;7386585;19;20168;-76
2023/09/02 01:50:24;;;;;;;1.60;1.20;;;18.60;99.90;;;;;;7382237;19;20165;-76
2023/09/02 01:52:56;;;;;;;2.05;1.17;;;18.30;99.90;;;;;;7388310;19;20131;-76
2023/09/02 01:55:22;;;;;;;1.42;1.10;;;18.30;99.90;;;;;;7386436;19;20176;-77
2023/09/02 01:57:49;;;;;;;1.73;1.25;;;18.30;99.90;;;;;;7387289;19;20157;-76
2023/09/02 02:00:15;;;;;;;2.28;1.33;;;18.30;99.90;;;;;;7385301;19;20131;-76
2023/09/02 02:02:42;;;;;;;3.17;1.10;;;18.30;99.90;;;;;;7391636;19;20135;-76
2023/09/02 02:05:12;;;;;;;1.38;1.10;;;18.40;99.90;;;;;;7389918;19;20165;-76
2023/09/02 02:07:43;;;;;;;3.97;1.30;;;18.40;99.90;;;;;;7393418;19;20478;-78
2023/09/02 02:10:12;;;;;;;2.00;1.40;;;18.40;99.90;;;;;;7391231;19;20463;-76
2023/09/02 02:12:42;;;;;;;4.20;1.02;;;18.30;99.90;;;;;;7392917;19;20151;-76
2023/09/02 02:15:10;;;;;;;2.45;1.30;;;18.40;99.90;;;;;;7389513;19;20505;-76
2023/09/02 02:17:39;;;;;;;1.88;1.17;;;18.30;99.90;;;;;;7391686;19;20610;-77
2023/09/02 02:20:07;;;;;;;1.60;1.33;;;18.30;99.90;;;;;;7394051;19;20150;-77
2023/09/02 02:22:33;;;;;;;1.48;1.13;;;18.40;99.90;;;;;;7391643;19;20151;-77
2023/09/02 02:24:58;;;;;;;2.03;1.45;;;18.50;99.90;;;;;;7392647;19;20161;-76
2023/09/02 02:27:24;;;;;;;2.92;1.30;;;18.40;99.90;;;;;;7392107;19;20151;-77
2023/09/02 02:29:50;;;;;;;2.30;1.13;;;18.30;99.90;;;;;;7391360;19;20142;-77
2023/09/02 02:32:15;;;;;;;1.38;1.23;;;18.30;99.90;;;;;;7392470;19;20161;-77
2023/09/02 02:34:41;;;;;;;1.70;1.20;;;18.50;99.90;;;;;;7393198;19;20138;-77
2023/09/02 02:37:07;;;;;;;2.38;1.40;;;18.30;99.90;;;;;;7391550;19;20151;-76
2023/09/02 02:39:33;;;;;;;3.05;1.30;;;18.40;99.90;;;;;;7392289;19;20583;-77
2023/09/02 02:41:58;;;;;;;1.67;1.30;;;18.30;99.90;;;;;;7391244;19;20158;-76
2023/09/02 02:44:24;;;;;;;3.00;1.52;;;18.30;99.90;;;;;;7389519;19;20168;-77
2023/09/02 02:46:50;;;;;;;3.42;1.50;;;18.20;99.90;;;;;;7391976;19;20579;-76
2023/09/02 02:49:15;;;;;;;2.28;1.70;;;18.40;99.90;;;;;;7390704;19;20327;-76
2023/09/02 02:51:41;;;;;;;2.75;1.40;;;18.20;99.90;;;;;;7390347;19;20139;-76
2023/09/02 02:54:07;;;;;;;3.40;1.30;;;18.30;99.90;;;;;;7390572;19;20162;-77
2023/09/02 02:56:35;;;;;;;1.83;1.20;;;18.40;99.90;;;;;;7389887;19;20271;-76
2023/09/02 02:59:00;;;;;;;3.05;1.27;;;18.20;99.90;;;;;;7390691;19;20158;-78
2023/09/02 03:01:26;;;;;;;1.35;1.10;;;18.00;99.90;;;;;;7391390;19;20147;-76
2023/09/02 03:03:52;;;;;;;1.33;1.20;;;18.20;99.90;;;;;;7390509;19;20146;-77
2023/09/02 03:06:21;;;;;;;6.20;1.70;;;18.20;99.90;;;;;;7390570;19;20207;-77
2023/09/02 03:08:47;;;;;;;2.40;1.30;;;18.30;99.90;;;;;;7392767;19;20147;-76
2023/09/02 03:11:13;;;;;;;1.85;1.38;;;18.30;99.90;;;;;;7389891;19;20254;-76
2023/09/02 03:13:39;;;;;;;1.58;1.40;;;18.30;99.90;;;;;;7390628;19;20598;-77
2023/09/02 03:16:05;;;;;;;1.60;1.33;;;18.30;99.90;;;;;;7390939;19;20230;-76
2023/09/02 03:18:31;;;;;;;4.60;1.35;;;18.10;99.90;;;;;;7391281;19;20214;-76
2023/09/02 03:21:07;;;;;;;3.42;1.40;;;17.90;99.90;;;;;;7390661;19;20583;-77
2023/09/02 03:23:34;;;;;;;4.60;1.50;;;17.90;99.90;;;;;;7392224;19;20150;-78
2023/09/02 03:26:15;;;;;;;1.95;1.50;;;17.80;99.90;;;;;;7390226;19;20184;-77
2023/09/02 03:28:41;;;;;;;2.03;1.55;;;17.70;99.90;;;;;;7390573;19;20169;-76
2023/09/02 03:31:11;;;;;;;3.45;1.27;;;17.40;99.90;;;;;;7389822;19;20126;-77
2023/09/02 03:33:37;;;;;;;2.05;1.42;;;17.30;99.90;;;;;;7390091;19;20566;-78
2023/09/02 03:36:03;;;;;;;1.67;1.20;;;17.60;99.90;;;;;;7390970;19;20149;-76
2023/09/02 03:38:29;;;;;;;1.50;1.27;;;17.50;99.90;;;;;;7390158;19;20143;-76
2023/09/02 03:40:55;;;;;;;1.85;1.40;;;17.40;99.90;;;;;;7390038;19;20130;-78
2023/09/02 03:43:21;;;;;;;2.35;1.35;;;17.70;99.90;;;;;;7389515;19;20139;-78
2023/09/02 03:45:48;;;;;;;2.45;1.30;;;17.80;99.90;;;;;;7389631;19;20140;-78
2023/09/02 03:48:18;;;;;;;2.72;1.70;;;17.80;99.90;;;;;;7389655;19;20150;-76
2023/09/02 03:51:05;;;;;;;1.60;1.27;;;17.80;99.90;;;;;;7387797;19;20131;-76
2023/09/02 03:53:34;;;;;;;3.13;1.30;;;17.70;99.90;;;;;;7390183;19;20156;-76
2023/09/02 03:56:00;;;;;;;2.45;1.50;;;17.70;99.90;;;;;;7389506;19;20618;-76
2023/09/02 03:58:26;;;;;;;2.03;1.40;;;17.70;99.90;;;;;;7389145;19;20176;-77
2023/09/02 04:00:52;;;;;;;1.70;1.50;;;17.70;99.90;;;;;;7390625;19;20255;-76
2023/09/02 04:03:19;;;;;;;2.20;1.63;;;17.70;99.90;;;;;;7388250;19;20153;-77
2023/09/02 04:05:49;;;;;;;3.85;1.65;;;17.80;99.90;;;;;;7386022;19;20182;-76
2023/09/02 04:08:19;;;;;;;3.08;1.50;;;17.80;99.90;;;;;;7388439;19;20161;-76
2023/09/02 04:10:51;;;;;;;7.40;1.60;;;17.90;99.90;;;;;;7386915;19;20374;-77
2023/09/02 04:13:18;;;;;;;2.05;1.38;;;18.00;99.90;;;;;;7388643;19;20611;-76
2023/09/02 04:15:44;;;;;;;1.83;1.30;;;17.90;99.90;;;;;;7390728;19;20239;-77
2023/09/02 04:18:09;;;;;;;2.13;1.60;;;18.00;99.90;;;;;;7388111;19;20602;-77
2023/09/02 04:20:35;;;;;;;5.82;1.13;;;18.00;99.90;;;;;;7390268;19;20157;-76
2023/09/02 04:23:01;;;;;;;1.50;1.10;;;17.60;99.90;;;;;;7389868;19;20130;-76
2023/09/02 04:25:27;;;;;;;4.13;0.93;;;17.60;99.90;;;;;;7386482;19;20134;-76
2023/09/02 04:27:56;;;;;;;2.88;1.40;;;17.70;99.90;;;;;;7387865;19;20171;-77
2023/09/02 04:30:24;;;;;;;1.98;1.35;;;17.40;99.90;;;;;;7386839;19;20616;-77
2023/09/02 04:32:50;;;;;;;3.17;1.48;;;17.50;99.90;;;;;;7388601;19;20154;-77
2023/09/02 04:35:16;;;;;;;1.73;0.95;;;17.40;99.90;;;;;;7387614;19;20158;-77
2023/09/02 04:37:42;;;;;;;1.60;1.38;;;17.30;99.90;;;;;;7389979;19;20131;-77
2023/09/02 04:40:10;;;;;;;1.88;1.20;;;17.40;99.90;;;;;;7390425;19;20131;-77
2023/09/02 04:42:38;;;;;;;2.33;1.45;;;17.40;99.90;;;;;;7388620;19;20151;-76
2023/09/02 04:45:04;;;;;;;4.00;1.50;;;17.40;99.90;;;;;;7389332;19;20151;-78
2023/09/02 04:47:30;;;;;;;2.15;1.50;;;17.30;99.90;;;;;;7389398;19;20771;-77
2023/09/02 04:49:56;;;;;;;3.28;1.17;;;17.50;99.90;;;;;;7388702;19;20134;-76
2023/09/02 04:52:21;;;;;;;1.73;1.40;;;17.60;99.90;;;;;;7389339;19;20142;-77
2023/09/02 04:54:47;;;;;;;1.73;1.30;;;17.70;99.90;;;;;;7388189;19;20494;-77
2023/09/02 04:57:13;;;;;;;1.63;1.38;;;17.60;99.90;;;;;;7387061;19;20609;-76
2023/09/02 04:59:39;;;;;;;2.10;1.40;;;17.20;99.90;;;;;;7387986;19;20154;-76
2023/09/02 05:02:06;;;;;;;1.40;1.25;;;17.10;99.90;;;;;;7387553;19;20147;-76
2023/09/02 05:04:31;;;;;;;2.65;1.45;;;17.30;99.90;;;;;;7385650;19;20175;-76
2023/09/02 05:06:57;;;;;;;2.22;1.55;;;17.20;99.90;;;;;;7386795;19;20603;-76
2023/09/02 05:09:23;;;;;;;2.42;1.52;;;17.40;99.90;;;;;;7386617;19;20484;-77
2023/09/02 05:11:48;;;;;;;2.30;1.45;;;17.30;99.90;;;;;;7387929;19;20135;-77
2023/09/02 05:14:14;;;;;;;2.45;1.48;;;17.30;99.90;;;;;;7387942;19;20587;-77
2023/09/02 05:16:40;;;;;;;1.85;1.40;;;17.30;99.90;;;;;;7386219;19;20146;-76
2023/09/02 05:19:07;;;;;;;5.65;1.60;;;17.50;99.90;;;;;;7388777;19;20135;-76
2023/09/02 05:21:33;;;;;;;4.35;1.63;;;17.40;99.90;;;;;;7387069;19;20217;-76
2023/09/02 05:23:59;;;;;;;3.00;1.50;;;17.60;99.90;;;;;;7387929;19;20556;-77
2023/09/02 05:26:25;;;;;;;2.60;1.45;;;17.40;99.90;;;;;;7385361;19;20214;-77
2023/09/02 05:28:50;;;;;;;3.90;1.92;;;17.40;99.90;;;;;;7387119;19;20153;-76
2023/09/02 05:31:18;;;;;;;2.67;1.60;;;17.40;99.90;;;;;;7385924;19;20135;-76
2023/09/02 05:33:46;;;;;;;2.72;1.90;;;17.40;99.90;;;;;;7383378;19;20142;-77
2023/09/02 05:36:11;;;;;;;2.00;1.63;;;17.60;99.90;;;;;;7387453;19;20130;-75
2023/09/02 05:38:37;;;;;;;2.38;1.80;;;17.70;99.90;;;;;;7393838;19;20498;-76
2023/09/02 05:41:03;;;;;;;2.42;2.00;;;17.90;99.90;;;;;;7391084;19;20134;-76
2023/09/02 05:43:29;;;;;;;2.55;1.65;;;18.00;99.90;;;;;;7391217;19;20210;-77
2023/09/02 05:45:58;;;;;;;2.80;1.90;;;18.00;99.90;;;;;;7393210;19;20151;-76
2023/09/02 05:48:24;;;;;;;2.80;1.90;;;18.10;99.90;;;;;;7392949;19;20537;-76
2023/09/02 05:50:49;;;;;;;2.03;1.70;;;18.10;99.90;;;;;;7390183;19;20139;-75
2023/09/02 05:53:15;;;;;;;2.80;2.00;;;18.00;99.90;;;;;;7392837;19;20138;-77
2023/09/02 05:55:41;;;;;;;2.00;1.80;;;17.80;99.90;;;;;;7390794;19;20142;-76
2023/09/02 05:58:07;;;;;;;3.17;1.98;;;17.60;99.90;;;;;;7394331;19;20437;-75
2023/09/02 06:00:35;;;;;;;4.63;2.20;;;17.40;99.90;;;;;;7391502;19;20230;-76
2023/09/02 06:03:00;;;;;;;2.42;2.10;;;17.50;99.90;;;;;;7392766;19;20496;-76
2023/09/02 06:05:29;;;;;;;2.70;1.98;;;17.70;99.90;;;;;;7387990;19;20646;-75
2023/09/02 06:07:55;;;;;;;4.88;1.92;;;17.70;99.90;;;;;;7392334;19;20221;-76
2023/09/02 06:10:21;;;;;;;3.75;1.83;;;17.70;99.90;;;;;;7389939;19;20175;-76
2023/09/02 06:12:46;;;;;;;3.20;2.03;;;17.90;99.90;;;;;;7390609;19;20587;-76
2023/09/02 06:15:12;;;;;;;3.05;1.90;;;18.00;99.90;;;;;;7392674;19;20670;-76
2023/09/02 06:17:38;;;;;;;5.10;2.58;;;18.10;99.90;;;;;;7390728;19;20854;-76
2023/09/02 06:20:04;;;;;;;3.78;2.30;;;17.90;99.90;;;;;;7393636;19;20470;-76
2023/09/02 06:22:30;;;;;;;3.28;2.10;;;17.80;99.90;;;;;;7390966;19;20139;-75
2023/09/02 06:24:56;;;;;;;2.28;1.90;;;17.90;99.90;;;;;;7391500;19;20226;-75
2023/09/02 06:27:21;;;;;;;3.33;1.80;;;18.10;99.90;;;;;;7392394;19;20470;-75
2023/09/02 06:29:47;;;;;;;2.30;1.88;;;18.20;99.90;;;;;;7390557;19;20468;-76
2023/09/02 06:32:13;;;;;;;2.35;1.83;;;18.10;99.90;;;;;;7391187;19;20470;-76
2023/09/02 06:34:39;;;;;;;3.15;1.75;;;18.20;99.90;;;;;;7391867;19;20244;-77
2023/09/02 06:37:04;;;;;;;2.25;1.67;;;18.30;99.90;;;;;;7392891;19;20135;-76
2023/09/02 06:39:30;;;;;;;6.10;1.90;;;18.20;99.90;;;;;;7393079;19;20156;-76
2023/09/02 06:41:56;;;;;;;4.72;2.40;;;18.20;99.90;;;;;;7391755;19;20139;-75
2023/09/02 06:44:21;;;;;;;3.95;1.80;;;18.20;99.90;;;;;;7390848;19;20142;-76
2023/09/02 06:46:47;;;;;;;1.50;1.40;;;18.30;99.90;;;;;;7390617;19;20138;-75
2023/09/02 06:49:13;;;;;;;2.83;1.70;;;18.30;99.90;;;;;;7390516;19;20151;-76
2023/09/02 06:51:39;;;;;;;2.35;1.80;;;18.00;99.90;;;;;;7390354;19;20138;-76
2023/09/02 06:54:05;;;;;;;7.32;1.90;;;17.80;99.90;;;;;;7390860;19;20275;-76
2023/09/02 06:56:30;;;;;;;2.80;1.67;;;17.60;99.90;;;;;;7391436;19;20134;-76
2023/09/02 06:58:56;;;;;;;3.28;1.98;;;17.60;99.90;;;;;;7394874;19;20130;-75
2023/09/02 07:01:22;;;;;;;4.28;2.78;;;17.80;99.90;;;;;;7391120;19;20157;-78
2023/09/02 07:03:48;;;;;;;6.07;3.88;;;18.20;99.90;;;;;;7391540;19;20182;-76
2023/09/02 07:06:15;;;;;;;4.32;2.90;;;18.40;99.90;;;;;;7391129;19;20134;-76
2023/09/02 07:08:42;;;;;;;2.88;2.40;;;18.50;99.90;;;;;;7392208;19;20180;-76
2023/09/02 07:11:11;;;;;;;3.45;2.60;;;18.70;99.90;;;;;;7391396;19;20142;-77
2023/09/02 07:13:38;;;;;;;3.40;2.38;;;18.80;99.90;;;;;;7391954;19;20450;-77
2023/09/02 07:16:05;;;;;;;2.95;2.08;;;18.90;99.90;;;;;;7392132;19;20202;-77
2023/09/02 07:18:31;;;;;;;3.83;2.50;;;19.00;99.90;;;;;;7391880;19;20156;-76
2023/09/02 07:21:05;;;;;;;6.10;3.03;;;19.20;99.90;;;;;;7391152;19;20126;-76
2023/09/02 07:23:32;;;;;;;3.25;2.40;;;19.30;99.90;;;;;;7389408;19;20154;-75
2023/09/02 07:26:01;;;;;;;4.20;2.22;;;19.50;99.90;;;;;;7389876;19;20135;-77
2023/09/02 07:28:27;;;;;;;2.83;1.92;;;19.60;99.90;;;;;;7390429;19;20149;-76
2023/09/02 07:30:56;;;;;;;3.65;2.53;;;19.70;99.90;;;;;;7387611;19;20557;-76
2023/09/02 07:33:21;;;;;;;2.20;1.77;;;19.80;99.90;;;;;;7390450;19;20261;-76
2023/09/02 07:35:47;;;;;;;3.03;2.10;;;20.00;99.90;;;;;;7388497;19;20146;-73
2023/09/02 07:38:14;;;;;;;3.45;2.33;;;20.10;99.90;;;;;;7391850;19;20233;-76
2023/09/02 07:40:41;;;;;;;3.90;2.35;;;20.30;99.90;;;;;;7389934;19;20154;-78
2023/09/02 07:43:06;;;;;;;3.13;2.05;;;20.70;99.90;;;;;;7390962;19;20145;-78
2023/09/02 07:45:32;;;;;;;2.90;1.73;;;21.30;99.90;;;;;;7389666;19;20535;-78
2023/09/02 07:47:58;;;;;;;2.22;1.85;;;22.00;99.90;;;;;;7390574;19;20218;-77
2023/09/02 07:50:24;;;;;;;3.20;2.38;;;22.50;99.90;;;;;;7385243;19;20142;-76
2023/09/02 07:52:49;;;;;;;2.55;2.10;;;22.90;99.90;;;;;;7390358;19;20979;-75
2023/09/02 07:55:15;;;;;;;6.80;2.28;;;23.20;99.90;;;;;;7389390;19;20842;-76
2023/09/02 07:57:41;;;;;;;2.97;2.10;;;23.30;99.90;;;;;;7390665;19;20201;-76
2023/09/02 08:00:10;;;;;;;4.72;2.95;;;23.30;99.90;;;;;;7385271;19;20134;-74
2023/09/02 08:02:36;;;;;;;3.30;2.28;;;23.40;99.90;;;;;;7389490;19;20137;-74
2023/09/02 08:05:01;;;;;;;3.85;1.98;;;23.20;99.90;;;;;;7387514;19;21171;-74
2023/09/02 08:07:27;;;;;;;3.58;2.75;;;23.10;99.90;;;;;;7389530;19;20163;-74
2023/09/02 08:09:53;;;;;;;2.53;2.00;;;23.10;99.90;;;;;;7386758;19;20130;-78
2023/09/02 08:12:18;;;;;;;3.63;1.80;;;23.10;99.90;;;;;;7388792;19;20133;-76
2023/09/02 08:14:44;;;;;;;3.83;2.10;;;23.00;99.90;;;;;;7387477;19;20194;-76
2023/09/02 08:17:10;;;;;;;4.15;2.47;;;23.10;99.90;;;;;;7392696;19;20130;-75
2023/09/02 08:19:36;;;;;;;2.78;1.77;;;23.10;99.90;;;;;;7387658;19;20150;-76
2023/09/02 08:22:02;;;;;;;4.20;2.92;;;22.90;99.90;;;;;;7388887;19;20164;-76
2023/09/02 08:24:28;;;;;;;6.90;4.40;;;22.80;99.90;;;;;;7387528;19;20126;-76
2023/09/02 08:26:54;;;;;;;9.48;4.47;;;22.90;99.90;;;;;;7390020;19;20698;-76
2023/09/02 08:29:20;;;;;;;5.93;3.28;;;22.90;99.90;;;;;;7387399;19;20131;-77
2023/09/02 08:31:53;;;;;;;4.28;2.72;;;22.90;99.90;;;;;;7388583;19;20183;-77
2023/09/02 08:34:19;;;;;;;8.35;5.13;;;22.80;99.90;;;;;;7389257;19;20142;-75
2023/09/02 08:36:44;;;;;;;5.68;3.60;;;22.80;99.90;;;;;;7391419;19;20474;-76
2023/09/02 08:39:13;;;;;;;5.25;3.20;;;22.70;99.90;;;;;;7390303;19;20134;-79
2023/09/02 08:41:41;;;;;;;4.45;3.10;;;22.50;99.90;;;;;;7388419;19;20133;-77
2023/09/02 08:44:09;;;;;;;6.38;4.20;;;22.50;99.90;;;;;;7388534;19;20138;-76
2023/09/02 08:46:40;;;;;;;6.10;3.70;;;22.50;99.90;;;;;;7389497;19;20471;-77
2023/09/02 08:49:06;;;;;;;4.10;2.72;;;22.50;99.90;;;;;;7387435;19;20142;-75
2023/09/02 08:51:33;;;;;;;4.70;2.35;;;22.60;99.90;;;;;;7389759;19;20169;-74
2023/09/02 08:54:00;;;;;;;5.38;1.92;;;22.50;99.90;;;;;;7388602;19;20145;-75
2023/09/02 08:56:26;;;;;;;2.53;1.98;;;22.50;99.90;;;;;;7389669;19;20135;-75
2023/09/02 08:58:56;;;;;;;4.75;2.42;;;22.60;99.90;;;;;;7387891;19;20512;-74
2023/09/02 09:01:24;;;;;;;4.05;2.38;;;22.60;99.90;;;;;;7389841;19;20157;-74
2023/09/02 09:03:53;;;;;;;3.67;2.25;;;22.70;99.90;;;;;;7387118;19;20146;-75
2023/09/02 09:06:24;;;;;;;3.42;2.13;;;22.70;99.90;;;;;;7385982;19;20144;-76
2023/09/02 09:08:52;;;;;;;3.47;2.00;;;22.80;99.90;;;;;;7387273;19;20153;-74
2023/09/02 09:11:22;;;;;;;3.13;2.10;;;22.80;99.90;;;;;;7388545;19;20213;-75
2023/09/02 09:13:49;;;;;;;3.20;2.67;;;22.90;99.90;;;;;;7394147;19;20158;-75
2023/09/02 09:16:26;;;;;;;4.13;2.35;;;23.10;99.90;;;;;;7392523;19;20131;-74
2023/09/02 09:18:52;;;;;;;4.20;2.10;;;23.20;99.90;;;;;;7393463;19;20253;-75
2023/09/02 09:21:18;;;;;;;3.50;2.15;;;23.30;99.90;;;;;;7393436;19;20158;-75
2023/09/02 09:23:43;;;;;;;2.50;1.83;;;23.30;99.90;;;;;;7393078;19;20146;-77
2023/09/02 09:26:14;;;;;;;2.63;2.05;;;23.60;99.90;;;;;;7393707;19;20184;-76
2023/09/02 09:28:53;;;;;;;3.10;1.88;;;23.70;99.90;;;;;;7393331;19;20134;-77
2023/09/02 09:31:20;;;;;;;3.20;1.88;;;23.80;99.90;;;;;;7394009;19;20879;-76
2023/09/02 09:33:58;;;;;;;2.97;2.13;;;23.80;99.90;;;;;;7394492;19;20135;-77
2023/09/02 09:36:29;;;;;;;3.53;2.10;;;23.70;99.90;;;;;;7394419;19;20146;-76
2023/09/02 09:38:57;;;;;;;3.92;2.35;;;23.60;99.90;;;;;;7398725;19;20135;-76
2023/09/02 09:41:25;;;;;;;2.92;1.90;;;23.50;99.90;;;;;;7393468;19;20143;-77
2023/09/02 09:44:04;;;;;;;2.78;1.75;;;23.50;99.90;;;;;;7392855;19;20122;-77
2023/09/02 09:46:53;;;;;;;1.85;1.60;;;23.50;99.90;;;;;;7393028;19;20146;-77
2023/09/02 09:49:26;;;;;;;4.60;2.42;;;23.60;99.90;;;;;;7390998;19;20242;-78
2023/09/02 09:52:12;;;;;;;3.13;2.10;;;23.60;99.90;;;;;;7392668;19;20152;-76
2023/09/02 09:54:47;;;;;;;3.10;2.60;;;23.70;99.90;;;;;;7393625;19;20150;-76
2023/09/02 09:57:37;;;;;;;5.45;3.10;;;23.90;99.90;;;;;;7391649;19;20126;-77
2023/09/02 10:00:06;;;;;;;3.05;2.47;;;24.00;99.90;;;;;;7392809;19;20139;-81
2023/09/02 10:02:32;;;;;;;4.00;2.70;;;24.20;99.90;;;;;;7392585;19;20138;-79
2023/09/02 10:04:59;;;;;;;6.13;2.25;;;24.30;99.90;;;;;;7392723;19;20151;-76
2023/09/02 10:07:26;;;;;;;5.45;3.08;;;24.20;99.90;;;;;;7392596;19;20147;-76
2023/09/02 10:09:54;;;;;;;5.15;1.70;;;24.20;99.90;;;;;;7391951;19;20126;-77
2023/09/02 10:12:21;;;;;;;6.82;1.73;;;24.20;99.90;;;;;;7391402;19;20126;-76
2023/09/02 10:14:49;;;;;;;3.42;1.80;;;24.30;99.90;;;;;;7390463;19;20130;-79
2023/09/02 10:17:16;;;;;;;2.00;1.70;;;24.30;99.90;;;;;;7394783;19;20151;-79
2023/09/02 10:19:43;;;;;;;5.22;2.80;;;24.30;99.90;;;;;;7391190;19;20161;-77
2023/09/02 10:22:14;;;;;;;6.75;2.25;;;24.40;99.90;;;;;;7388135;19;20150;-76
2023/09/02 10:25:09;;;;;;;11.27;7.25;;;24.60;99.90;;;;;;7389072;19;20150;-78
2023/09/02 10:27:42;;;;;;;10.80;8.15;;;24.70;99.90;;;;;;7390263;19;20146;-77
2023/09/02 10:30:17;;;;;;;23.17;17.88;;;24.70;99.90;;;;;;7390360;19;20142;-77
2023/09/02 10:32:51;;;;;;;4.30;2.80;;;24.70;99.90;;;;;;7391777;19;20137;-77
2023/09/02 10:35:18;;;;;;;4.22;2.10;;;24.90;99.90;;;;;;7392420;19;20609;-76
2023/09/02 10:37:55;;;;;;;5.05;2.20;;;24.90;99.90;;;;;;7392936;19;20151;-78
2023/09/02 10:40:23;;;;;;;5.18;2.90;;;25.00;99.90;;;;;;7390990;19;20138;-76
2023/09/02 10:42:52;;;;;;;3.25;2.60;;;25.10;99.90;;;;;;7390611;19;20168;-75
2023/09/02 10:45:18;;;;;;;5.65;2.70;;;25.00;99.90;;;;;;7390004;19;20166;-77
2023/09/02 10:47:48;;;;;;;7.38;3.60;;;25.10;99.90;;;;;;7390557;19;20166;-76
2023/09/02 10:50:16;;;;;;;4.00;2.20;;;25.20;99.90;;;;;;7385003;19;20607;-77
2023/09/02 10:52:42;;;;;;;4.47;2.75;;;25.30;99.90;;;;;;7385073;19;20545;-77
2023/09/02 10:55:10;;;;;;;6.72;3.80;;;25.40;99.90;;;;;;7389828;19;20162;-74
2023/09/02 10:57:54;;;;;;;81.90;25.42;;;25.30;99.90;;;;;;7390154;19;20138;-75
2023/09/02 11:00:21;;;;;;;12.23;5.80;;;25.30;99.90;;;;;;7390209;19;20153;-76
2023/09/02 11:02:51;;;;;;;7.00;3.67;;;25.20;99.90;;;;;;7389037;19;20242;-79
2023/09/02 11:05:17;;;;;;;4.50;3.30;;;25.20;99.90;;;;;;7385009;19;20186;-76
2023/09/02 11:07:43;;;;;;;5.55;2.20;;;25.30;99.90;;;;;;7384882;19;20719;-75
2023/09/02 11:10:11;;;;;;;2.70;2.10;;;25.20;99.90;;;;;;7385544;19;20151;-76
2023/09/02 11:12:57;;;;;;;5.15;3.10;;;25.40;99.90;;;;;;7387055;19;20157;-77
2023/09/02 11:15:23;;;;;;;3.20;1.92;;;25.50;99.90;;;;;;7388561;19;20153;-75
2023/09/02 11:17:49;;;;;;;2.78;2.35;;;25.50;99.90;;;;;;7389064;19;20155;-75
2023/09/02 11:20:19;;;;;;;3.15;2.15;;;25.60;99.90;;;;;;7388764;19;20146;-76
2023/09/02 11:22:56;;;;;;;365.85;57.65;;;25.50;99.90;;;;;;7388123;19;20154;-76
2023/09/02 11:25:34;;;;;;;20.33;5.63;;;25.60;99.90;;;;;;7389233;19;20603;-76
2023/09/02 11:28:16;;;;;;;6.90;3.03;;;25.70;99.90;;;;;;7388581;19;20154;-76
2023/09/02 11:31:05;;;;;;;8.13;2.45;;;25.60;99.90;;;;;;7387566;19;20154;-77
2023/09/02 11:33:33;;;;;;;5.25;2.25;;;25.50;99.90;;;;;;7388335;19;20138;-73
2023/09/02 11:36:04;;;;;;;4.10;1.70;;;25.40;99.90;;;;;;7387600;19;20169;-76
2023/09/02 11:38:32;;;;;;;3.13;1.30;;;25.30;99.90;;;;;;7391288;19;20153;-77
2023/09/02 11:40:59;;;;;;;1.63;1.30;;;25.40;99.90;;;;;;7388665;19;20155;-75
2023/09/02 11:43:31;;;;;;;1.65;0.90;;;25.50;99.90;;;;;;7387561;19;20146;-77
2023/09/02 11:45:59;;;;;;;2.65;1.25;;;25.60;99.90;;;;;;7378718;19;20150;-76
2023/09/02 11:48:28;;;;;;;2.17;1.50;;;25.80;99.90;;;;;;7382487;19;20514;-77
2023/09/02 11:50:58;;;;;;;3.35;1.13;;;26.00;99.90;;;;;;7382916;19;20639;-75
2023/09/02 11:53:25;;;;;;;4.47;1.80;;;26.10;99.90;;;;;;7386250;19;20169;-77
2023/09/02 11:55:51;;;;;;;3.30;2.40;;;26.20;99.90;;;;;;7385747;19;20154;-77
2023/09/02 11:58:18;;;;;;;2.83;2.08;;;26.20;99.90;;;;;;7386496;19;20198;-77
2023/09/02 12:00:45;;;;;;;4.38;2.05;;;26.10;99.90;;;;;;7387340;19;20505;-75
2023/09/02 12:03:15;;;;;;;217.80;36.72;;;26.10;99.90;;;;;;7388276;19;20584;-77
2023/09/02 12:05:53;;;;;;;76.88;14.13;;;26.20;99.90;;;;;;7386588;19;20147;-78
2023/09/02 12:08:19;;;;;;;9.65;2.40;;;26.30;99.90;;;;;;7391147;19;20141;-79
2023/09/02 12:10:49;;;;;;;1.25;1.10;;;26.50;99.90;;;;;;7384329;19;20604;-74
2023/09/02 12:13:15;;;;;;;8.88;3.25;;;26.50;99.90;;;;;;7387650;19;20401;-76
2023/09/02 12:15:46;;;;;;;23.65;5.57;;;26.60;99.90;;;;;;7388858;19;20146;-77
2023/09/02 12:18:12;;;;;;;17.63;8.75;;;26.70;99.90;;;;;;7387910;19;20387;-77
2023/09/02 12:20:38;;;;;;;3.30;1.27;;;26.80;99.90;;;;;;7386857;19;20619;-77
2023/09/02 12:23:05;;;;;;;12.75;8.18;;;26.80;99.90;;;;;;7389274;19;20158;-76
2023/09/02 12:25:33;;;;;;;7.85;3.65;;;26.90;99.90;;;;;;7385817;19;20148;-78
2023/09/02 12:28:13;;;;;;;7.13;3.22;;;27.00;99.90;;;;;;7382537;19;20145;-76
2023/09/02 12:30:40;;;;;;;6.72;2.65;;;27.00;99.90;;;;;;7387182;19;20575;-77
2023/09/02 12:33:06;;;;;;;3.63;2.40;;;27.00;99.90;;;;;;7388225;19;20158;-77
2023/09/02 12:35:32;;;;;;;6.72;4.30;;;26.90;99.90;;;;;;7383795;19;20131;-78
2023/09/02 12:38:10;;;;;;;6.60;4.13;;;26.80;99.90;;;;;;7384566;19;20580;-75
2023/09/02 12:40:36;;;;;;;4.97;2.95;;;26.50;99.90;;;;;;7385727;19;20155;-77
2023/09/02 12:43:03;;;;;;;2.92;1.83;;;26.30;99.90;;;;;;7386638;19;20154;-76
2023/09/02 12:45:35;;;;;;;3.42;2.50;;;26.10;99.90;;;;;;7382174;19;20131;-77
2023/09/02 12:48:02;;;;;;;2.03;1.45;;;26.20;99.90;;;;;;7388852;19;20149;-78
2023/09/02 12:50:30;;;;;;;2.30;1.40;;;26.20;99.90;;;;;;7382121;19;20509;-77